PWSweather.com
Personal Weather Stations
Station Observations
KV9EWX
Winnebago, Il, Winnebago, IL 61088

Winnebago, IlWinnebago, IL 61088

Lat: 42.261175, Lon: -89.236369

Elevation: 892

Station Type: Lacrosse ws-2811

Latest ConditionsUpdated 2:01:16 AM CDT Saturday, Jun 25, 2016
Currently Today's Max Today's Min Today's Average
Temperature 63.5°F17.5°C 65.9°F18.8°C 63.5°F17.5°C 64.4°F18.0°C
Dew Point 44.6°F7.0°C 48.3°F9.1°C 42.4°F5.8°C 44.9°F7.2°C
Winds 0.7 mph ESE1.1 kmh ESE 2.4 mph SE3.9 kmh SE - 0.7 mph 1.1 kmh
Wind Gusts 3.9 mph6.3 kmh 3.9 mph6.3 kmh - -
Humidity 50% 53% 45% 49%
Pressure 29.66 in1004.4 mb 29.68 in1005.1 mb 29.66 in1004.4 mb -
Hour Temp Dew Point Humidity Winds Wind Gusts Pressure Precip Precip Rate Daily Precip Total
02:01 AM 63.5°F17.5°C 44.6°F7.0°C 50% 0.7 mph ESE1.1 kmh ESE 3.9 mph6.3 kmh 29.66 in1004.4 mb 0.00 in0.0 mm 0.00 in0.0 mm 0.00 in0.0 mm
02:00 AM 63.5°F17.5°C 44.6°F7.0°C 50% 0.9 mph SE1.4 kmh SE 3.9 mph6.3 kmh 29.66 in1004.4 mb 0.00 in0.0 mm 0.00 in0.0 mm 0.00 in0.0 mm
01:59 AM 63.5°F17.5°C 44.6°F7.0°C 50% 1.0 mph SE1.6 kmh SE 3.9 mph6.3 kmh 29.67 in1004.7 mb 0.00 in0.0 mm 0.00 in0.0 mm 0.00 in0.0 mm
01:58 AM 63.5°F17.5°C 44.0°F6.7°C 49% 0.9 mph SE1.4 kmh SE 3.9 mph6.3 kmh 29.66 in1004.4 mb 0.00 in0.0 mm 0.00 in0.0 mm 0.00 in0.0 mm
01:57 AM 63.5°F17.5°C 44.0°F6.7°C 49% 1.4 mph SE2.3 kmh SE 3.9 mph6.3 kmh 29.66 in1004.4 mb 0.00 in0.0 mm 0.00 in0.0 mm 0.00 in0.0 mm
01:56 AM 63.5°F17.5°C 44.0°F6.7°C 49% 2.0 mph ESE3.2 kmh ESE 3.9 mph6.3 kmh 29.66 in1004.4 mb 0.00 in0.0 mm 0.00 in0.0 mm 0.00 in0.0 mm
01:55 AM 63.5°F17.5°C 44.0°F6.7°C 49% 1.8 mph E2.9 kmh E 3.9 mph6.3 kmh 29.66 in1004.4 mb 0.00 in0.0 mm 0.00 in0.0 mm 0.00 in0.0 mm
01:54 AM 63.5°F17.5°C 44.0°F6.7°C 49% 1.0 mph E1.6 kmh E 3.9 mph6.3 kmh 29.66 in1004.4 mb 0.00 in0.0 mm 0.00 in0.0 mm 0.00 in0.0 mm
01:53 AM 63.5°F17.5°C 44.0°F6.7°C 49% 0.9 mph ESE1.4 kmh ESE 3.9 mph6.3 kmh 29.66 in1004.4 mb 0.00 in0.0 mm 0.00 in0.0 mm 0.00 in0.0 mm
01:52 AM 63.5°F17.5°C 44.0°F6.7°C 49% 0.7 mph SE1.1 kmh SE 3.9 mph6.3 kmh 29.66 in1004.4 mb 0.00 in0.0 mm 0.00 in0.0 mm 0.00 in0.0 mm
01:51 AM 63.5°F17.5°C 44.0°F6.7°C 49% 0.6 mph SE1.0 kmh SE 3.9 mph6.3 kmh 29.66 in1004.4 mb 0.00 in0.0 mm 0.00 in0.0 mm 0.00 in0.0 mm
01:50 AM 63.5°F17.5°C 44.0°F6.7°C 49% 0.9 mph SE1.4 kmh SE 3.9 mph6.3 kmh 29.66 in1004.4 mb 0.00 in0.0 mm 0.00 in0.0 mm 0.00 in0.0 mm
01:49 AM 63.5°F17.5°C 44.0°F6.7°C 49% 1.1 mph SE1.8 kmh SE 3.9 mph6.3 kmh 29.66 in1004.4 mb 0.00 in0.0 mm 0.00 in0.0 mm 0.00 in0.0 mm
01:48 AM 63.5°F17.5°C 44.0°F6.7°C 49% 1.3 mph SE2.1 kmh SE 3.9 mph6.3 kmh 29.66 in1004.4 mb 0.00 in0.0 mm 0.00 in0.0 mm 0.00 in0.0 mm
01:47 AM 63.5°F17.5°C 44.0°F6.7°C 49% 1.9 mph ESE3.1 kmh ESE 3.9 mph6.3 kmh 29.66 in1004.4 mb 0.00 in0.0 mm 0.00 in0.0 mm 0.00 in0.0 mm
01:46 AM 63.5°F17.5°C 44.0°F6.7°C 49% 2.2 mph SE3.5 kmh SE 3.9 mph6.3 kmh 29.66 in1004.4 mb 0.00 in0.0 mm 0.00 in0.0 mm 0.00 in0.0 mm
01:45 AM 63.5°F17.5°C 44.0°F6.7°C 49% 2.1 mph SE3.4 kmh SE 3.9 mph6.3 kmh 29.66 in1004.4 mb 0.00 in0.0 mm 0.00 in0.0 mm 0.00 in0.0 mm
01:44 AM 63.5°F17.5°C 44.0°F6.7°C 49% 1.9 mph SE3.1 kmh SE 3.1 mph5.0 kmh 29.66 in1004.4 mb 0.00 in0.0 mm 0.00 in0.0 mm 0.00 in0.0 mm
01:43 AM 63.5°F17.5°C 44.6°F7.0°C 50% 1.4 mph SE2.3 kmh SE 3.1 mph5.0 kmh 29.66 in1004.4 mb 0.00 in0.0 mm 0.00 in0.0 mm 0.00 in0.0 mm
01:42 AM 63.5°F17.5°C 44.0°F6.7°C 49% 1.3 mph SE2.1 kmh SE 2.8 mph4.5 kmh 29.66 in1004.4 mb 0.00 in0.0 mm 0.00 in0.0 mm 0.00 in0.0 mm
01:41 AM 63.5°F17.5°C 44.0°F6.7°C 49% 1.4 mph SE2.3 kmh SE 2.8 mph4.5 kmh 29.67 in1004.7 mb 0.00 in0.0 mm 0.00 in0.0 mm 0.00 in0.0 mm
01:40 AM 63.5°F17.5°C 44.0°F6.7°C 49% 0.9 mph SE1.4 kmh SE 2.8 mph4.5 kmh 29.67 in1004.7 mb 0.00 in0.0 mm 0.00 in0.0 mm 0.00 in0.0 mm
01:39 AM 63.5°F17.5°C 44.0°F6.7°C 49% 0.3 mph ESE0.5 kmh ESE 1.6 mph2.6 kmh 29.67 in1004.7 mb 0.00 in0.0 mm 0.00 in0.0 mm 0.00 in0.0 mm
01:38 AM 63.5°F17.5°C 44.0°F6.7°C 49% 0.5 mph ESE0.8 kmh ESE 1.6 mph2.6 kmh 29.67 in1004.7 mb 0.00 in0.0 mm 0.00 in0.0 mm 0.00 in0.0 mm
01:37 AM 63.5°F17.5°C 44.0°F6.7°C 49% 0.6 mph ESE1.0 kmh ESE 1.6 mph2.6 kmh 29.66 in1004.4 mb 0.00 in0.0 mm 0.00 in0.0 mm 0.00 in0.0 mm
01:36 AM 63.5°F17.5°C 44.0°F6.7°C 49% 0.5 mph ESE0.8 kmh ESE 1.6 mph2.6 kmh 29.66 in1004.4 mb 0.00 in0.0 mm 0.00 in0.0 mm 0.00 in0.0 mm
01:35 AM 63.7°F17.6°C 44.2°F6.8°C 49% 0.3 mph ESE0.5 kmh ESE 1.6 mph2.6 kmh 29.66 in1004.4 mb 0.00 in0.0 mm 0.00 in0.0 mm 0.00 in0.0 mm
01:34 AM 63.7°F17.6°C 43.7°F6.5°C 48% 0.4 mph ESE0.6 kmh ESE 1.9 mph3.1 kmh 29.66 in1004.4 mb 0.00 in0.0 mm 0.00 in0.0 mm 0.00 in0.0 mm
01:33 AM 63.7°F17.6°C 43.7°F6.5°C 48% 0.4 mph SE0.6 kmh SE 1.9 mph3.1 kmh 29.66 in1004.4 mb 0.00 in0.0 mm 0.00 in0.0 mm 0.00 in0.0 mm
01:32 AM 63.7°F17.6°C 43.7°F6.5°C 48% 0.5 mph ESE0.8 kmh ESE 1.9 mph3.1 kmh 29.66 in1004.4 mb 0.00 in0.0 mm 0.00 in0.0 mm 0.00 in0.0 mm
01:31 AM 63.7°F17.6°C 43.7°F6.5°C 48% 0.8 mph ESE1.3 kmh ESE 1.9 mph3.1 kmh 29.66 in1004.4 mb 0.00 in0.0 mm 0.00 in0.0 mm 0.00 in0.0 mm
01:30 AM 63.7°F17.6°C 44.2°F6.8°C 49% 0.9 mph ESE1.4 kmh ESE 1.9 mph3.1 kmh 29.66 in1004.4 mb 0.00 in0.0 mm 0.00 in0.0 mm 0.00 in0.0 mm
01:29 AM 63.7°F17.6°C 44.2°F6.8°C 49% 0.9 mph SE1.4 kmh SE 1.9 mph3.1 kmh 29.66 in1004.4 mb 0.00 in0.0 mm 0.00 in0.0 mm 0.00 in0.0 mm
01:28 AM 63.7°F17.6°C 44.2°F6.8°C 49% 0.9 mph SE1.4 kmh SE 1.9 mph3.1 kmh 29.66 in1004.4 mb 0.00 in0.0 mm 0.00 in0.0 mm 0.00 in0.0 mm
01:27 AM 63.9°F17.7°C 44.4°F6.9°C 49% 0.6 mph SE1.0 kmh SE 1.9 mph3.1 kmh 29.66 in1004.4 mb 0.00 in0.0 mm 0.00 in0.0 mm 0.00 in0.0 mm
01:26 AM 63.9°F17.7°C 44.4°F6.9°C 49% 0.6 mph SE1.0 kmh SE 1.9 mph3.1 kmh 29.67 in1004.7 mb 0.00 in0.0 mm 0.00 in0.0 mm 0.00 in0.0 mm
01:25 AM 63.9°F17.7°C 44.4°F6.9°C 49% 0.8 mph SE1.3 kmh SE 1.9 mph3.1 kmh 29.67 in1004.7 mb 0.00 in0.0 mm 0.00 in0.0 mm 0.00 in0.0 mm
01:24 AM 63.9°F17.7°C 44.4°F6.9°C 49% 0.7 mph SE1.1 kmh SE 1.9 mph3.1 kmh 29.67 in1004.7 mb 0.00 in0.0 mm 0.00 in0.0 mm 0.00 in0.0 mm
01:23 AM 63.9°F17.7°C 44.4°F6.9°C 49% 0.5 mph SE0.8 kmh SE 1.9 mph3.1 kmh 29.67 in1004.7 mb 0.00 in0.0 mm 0.00 in0.0 mm 0.00 in0.0 mm
01:22 AM 63.9°F17.7°C 44.4°F6.9°C 49% 0.7 mph ESE1.1 kmh ESE 1.9 mph3.1 kmh 29.67 in1004.7 mb 0.00 in0.0 mm 0.00 in0.0 mm 0.00 in0.0 mm
01:21 AM 63.9°F17.7°C 44.4°F6.9°C 49% 1.1 mph ESE1.8 kmh ESE 1.9 mph3.1 kmh 29.67 in1004.7 mb 0.00 in0.0 mm 0.00 in0.0 mm 0.00 in0.0 mm
01:20 AM 63.9°F17.7°C 44.4°F6.9°C 49% 1.0 mph ESE1.6 kmh ESE 1.9 mph3.1 kmh 29.67 in1004.7 mb 0.00 in0.0 mm 0.00 in0.0 mm 0.00 in0.0 mm
01:19 AM 63.9°F17.7°C 44.4°F6.9°C 49% 0.7 mph E1.1 kmh E 1.9 mph3.1 kmh 29.67 in1004.7 mb 0.00 in0.0 mm 0.00 in0.0 mm 0.00 in0.0 mm
01:18 AM 63.9°F17.7°C 44.4°F6.9°C 49% 1.0 mph E1.6 kmh E 1.9 mph3.1 kmh 29.67 in1004.7 mb 0.00 in0.0 mm 0.00 in0.0 mm 0.00 in0.0 mm
01:17 AM 63.9°F17.7°C 44.4°F6.9°C 49% 1.0 mph ESE1.6 kmh ESE 1.9 mph3.1 kmh 29.67 in1004.7 mb 0.00 in0.0 mm 0.00 in0.0 mm 0.00 in0.0 mm
01:16 AM 63.9°F17.7°C 44.4°F6.9°C 49% 0.7 mph SE1.1 kmh SE 1.9 mph3.1 kmh 29.67 in1004.7 mb 0.00 in0.0 mm 0.00 in0.0 mm 0.00 in0.0 mm
01:15 AM 64.1°F17.8°C 44.6°F7.0°C 49% 0.4 mph ESE0.6 kmh ESE 1.9 mph3.1 kmh 29.67 in1004.7 mb 0.00 in0.0 mm 0.00 in0.0 mm 0.00 in0.0 mm
01:14 AM 64.1°F17.8°C 44.6°F7.0°C 49% 0.6 mph ESE1.0 kmh ESE 1.9 mph3.1 kmh 29.67 in1004.7 mb 0.00 in0.0 mm 0.00 in0.0 mm 0.00 in0.0 mm
01:13 AM 64.1°F17.8°C 44.6°F7.0°C 49% 1.0 mph SE1.6 kmh SE 1.9 mph3.1 kmh 29.67 in1004.7 mb 0.00 in0.0 mm 0.00 in0.0 mm 0.00 in0.0 mm
01:12 AM 64.1°F17.8°C 44.6°F7.0°C 49% 1.1 mph SE1.8 kmh SE 1.9 mph3.1 kmh 29.67 in1004.7 mb 0.00 in0.0 mm 0.00 in0.0 mm 0.00 in0.0 mm
01:11 AM 64.1°F17.8°C 44.0°F6.7°C 48% 0.8 mph SE1.3 kmh SE 1.9 mph3.1 kmh 29.67 in1004.7 mb 0.00 in0.0 mm 0.00 in0.0 mm 0.00 in0.0 mm
01:10 AM 64.1°F17.8°C 44.0°F6.7°C 48% 0.9 mph SE1.4 kmh SE 1.9 mph3.1 kmh 29.67 in1004.7 mb 0.00 in0.0 mm 0.00 in0.0 mm 0.00 in0.0 mm
01:09 AM 64.1°F17.8°C 44.6°F7.0°C 49% 1.2 mph SE1.9 kmh SE 1.9 mph3.1 kmh 29.67 in1004.7 mb 0.00 in0.0 mm 0.00 in0.0 mm 0.00 in0.0 mm
01:08 AM 64.2°F17.9°C 44.1°F6.7°C 48% 1.3 mph SE2.1 kmh SE 1.9 mph3.1 kmh 29.67 in1004.7 mb 0.00 in0.0 mm 0.00 in0.0 mm 0.00 in0.0 mm
01:07 AM 64.2°F17.9°C 44.7°F7.1°C 49% 1.4 mph SE2.3 kmh SE 1.9 mph3.1 kmh 29.67 in1004.7 mb 0.00 in0.0 mm 0.00 in0.0 mm 0.00 in0.0 mm
01:06 AM 64.2°F17.9°C 44.7°F7.1°C 49% 1.0 mph ESE1.6 kmh ESE 1.9 mph3.1 kmh 29.67 in1004.7 mb 0.00 in0.0 mm 0.00 in0.0 mm 0.00 in0.0 mm
01:05 AM 64.2°F17.9°C 44.7°F7.1°C 49% 0.9 mph ESE1.4 kmh ESE 1.9 mph3.1 kmh 29.67 in1004.7 mb 0.00 in0.0 mm 0.00 in0.0 mm 0.00 in0.0 mm
01:04 AM 64.2°F17.9°C 44.7°F7.1°C 49% 1.1 mph ESE1.8 kmh ESE 1.9 mph3.1 kmh 29.67 in1004.7 mb 0.00 in0.0 mm 0.00 in0.0 mm 0.00 in0.0 mm
01:03 AM 64.2°F17.9°C 44.1°F6.7°C 48% 0.9 mph ESE1.4 kmh ESE 1.9 mph3.1 kmh 29.67 in1004.7 mb 0.00 in0.0 mm 0.00 in0.0 mm 0.00 in0.0 mm
01:02 AM 64.2°F17.9°C 44.1°F6.7°C 48% 0.6 mph ESE1.0 kmh ESE 1.9 mph3.1 kmh 29.67 in1004.7 mb 0.00 in0.0 mm 0.00 in0.0 mm 0.00 in0.0 mm
01:01 AM 64.2°F17.9°C 44.1°F6.7°C 48% 0.6 mph ESE1.0 kmh ESE 1.9 mph3.1 kmh 29.67 in1004.7 mb 0.00 in0.0 mm 0.00 in0.0 mm 0.00 in0.0 mm
01:00 AM 64.2°F17.9°C 43.5°F6.4°C 47% 0.7 mph ESE1.1 kmh ESE 1.9 mph3.1 kmh 29.67 in1004.7 mb 0.00 in0.0 mm 0.00 in0.0 mm 0.00 in0.0 mm
12:59 AM 64.1°F17.8°C 42.9°F6.1°C 46% 0.8 mph ESE1.3 kmh ESE 1.9 mph3.1 kmh 29.67 in1004.7 mb 0.00 in0.0 mm 0.00 in0.0 mm 0.00 in0.0 mm
12:58 AM 64.2°F17.9°C 43.5°F6.4°C 47% 0.9 mph ESE1.4 kmh ESE 1.9 mph3.1 kmh 29.67 in1004.7 mb 0.00 in0.0 mm 0.00 in0.0 mm 0.00 in0.0 mm
12:57 AM 64.2°F17.9°C 43.5°F6.4°C 47% 0.6 mph E1.0 kmh E 1.9 mph3.1 kmh 29.67 in1004.7 mb 0.00 in0.0 mm 0.00 in0.0 mm 0.00 in0.0 mm
12:56 AM 64.2°F17.9°C 43.5°F6.4°C 47% 0.3 mph E0.5 kmh E 1.9 mph3.1 kmh 29.67 in1004.7 mb 0.00 in0.0 mm 0.00 in0.0 mm 0.00 in0.0 mm
12:55 AM 64.2°F17.9°C 43.5°F6.4°C 47% 0.4 mph E0.6 kmh E 1.9 mph3.1 kmh 29.67 in1004.7 mb 0.00 in0.0 mm 0.00 in0.0 mm 0.00 in0.0 mm
12:54 AM 64.2°F17.9°C 43.5°F6.4°C 47% 0.8 mph E1.3 kmh E 1.9 mph3.1 kmh 29.67 in1004.7 mb 0.00 in0.0 mm 0.00 in0.0 mm 0.00 in0.0 mm
12:53 AM 64.2°F17.9°C 43.5°F6.4°C 47% 0.9 mph E1.4 kmh E 1.9 mph3.1 kmh 29.67 in1004.7 mb 0.00 in0.0 mm 0.00 in0.0 mm 0.00 in0.0 mm
12:52 AM 64.2°F17.9°C 42.4°F5.8°C 45% 0.7 mph E1.1 kmh E 1.9 mph3.1 kmh 29.67 in1004.7 mb 0.00 in0.0 mm 0.00 in0.0 mm 0.00 in0.0 mm
12:51 AM 64.4°F18.0°C 43.7°F6.5°C 47% 0.6 mph E1.0 kmh E 1.9 mph3.1 kmh 29.67 in1004.7 mb 0.00 in0.0 mm 0.00 in0.0 mm 0.00 in0.0 mm
12:50 AM 64.4°F18.0°C 43.7°F6.5°C 47% 0.7 mph E1.1 kmh E 1.9 mph3.1 kmh 29.67 in1004.7 mb 0.00 in0.0 mm 0.00 in0.0 mm 0.00 in0.0 mm
12:49 AM 64.4°F18.0°C 43.7°F6.5°C 47% 0.7 mph E1.1 kmh E 1.9 mph3.1 kmh 29.67 in1004.7 mb 0.00 in0.0 mm 0.00 in0.0 mm 0.00 in0.0 mm
12:48 AM 64.6°F18.1°C 43.9°F6.6°C 47% 0.5 mph E0.8 kmh E 2.8 mph4.5 kmh 29.67 in1004.7 mb 0.00 in0.0 mm 0.00 in0.0 mm 0.00 in0.0 mm
12:47 AM 64.6°F18.1°C 44.5°F6.9°C 48% 0.6 mph E1.0 kmh E 2.8 mph4.5 kmh 29.67 in1004.7 mb 0.00 in0.0 mm 0.00 in0.0 mm 0.00 in0.0 mm
12:46 AM 64.6°F18.1°C 44.5°F6.9°C 48% 1.0 mph E1.6 kmh E 2.8 mph4.5 kmh 29.67 in1004.7 mb 0.00 in0.0 mm 0.00 in0.0 mm 0.00 in0.0 mm
12:45 AM 64.6°F18.1°C 43.9°F6.6°C 47% 1.4 mph E2.3 kmh E 2.8 mph4.5 kmh 29.67 in1004.7 mb 0.00 in0.0 mm 0.00 in0.0 mm 0.00 in0.0 mm
12:44 AM 64.6°F18.1°C 44.5°F6.9°C 48% 1.4 mph E2.3 kmh E 2.8 mph4.5 kmh 29.67 in1004.7 mb 0.00 in0.0 mm 0.00 in0.0 mm 0.00 in0.0 mm
12:43 AM 64.6°F18.1°C 44.5°F6.9°C 48% 1.3 mph E2.1 kmh E 2.8 mph4.5 kmh 29.67 in1004.7 mb 0.00 in0.0 mm 0.00 in0.0 mm 0.00 in0.0 mm
12:42 AM 64.6°F18.1°C 44.5°F6.9°C 48% 0.7 mph E1.1 kmh E 2.8 mph4.5 kmh 29.67 in1004.7 mb 0.00 in0.0 mm 0.00 in0.0 mm 0.00 in0.0 mm
12:41 AM 64.6°F18.1°C 44.5°F6.9°C 48% 0.5 mph ENE0.8 kmh ENE 2.8 mph4.5 kmh 29.67 in1004.7 mb 0.00 in0.0 mm 0.00 in0.0 mm 0.00 in0.0 mm
12:40 AM 64.6°F18.1°C 44.5°F6.9°C 48% 1.1 mph E1.8 kmh E 2.8 mph4.5 kmh 29.67 in1004.7 mb 0.00 in0.0 mm 0.00 in0.0 mm 0.00 in0.0 mm
12:39 AM 64.8°F18.2°C 45.2°F7.3°C 49% 1.0 mph E1.6 kmh E 2.8 mph4.5 kmh 29.67 in1004.7 mb 0.00 in0.0 mm 0.00 in0.0 mm 0.00 in0.0 mm
12:38 AM 64.8°F18.2°C 45.7°F7.6°C 50% 0.6 mph E1.0 kmh E 2.8 mph4.5 kmh 29.67 in1004.7 mb 0.00 in0.0 mm 0.00 in0.0 mm 0.00 in0.0 mm
12:37 AM 64.8°F18.2°C 45.2°F7.3°C 49% 0.5 mph E0.8 kmh E 1.6 mph2.6 kmh 29.67 in1004.7 mb 0.00 in0.0 mm 0.00 in0.0 mm 0.00 in0.0 mm
12:36 AM 64.8°F18.2°C 44.6°F7.0°C 48% 0.4 mph E0.6 kmh E 1.6 mph2.6 kmh 29.67 in1004.7 mb 0.00 in0.0 mm 0.00 in0.0 mm 0.00 in0.0 mm
12:35 AM 65.0°F18.3°C 45.9°F7.7°C 50% 0.3 mph ESE0.5 kmh ESE 0.7 mph1.1 kmh 29.67 in1004.7 mb 0.00 in0.0 mm 0.00 in0.0 mm 0.00 in0.0 mm
12:34 AM 65.0°F18.3°C 45.9°F7.7°C 50% 0.3 mph SSE0.5 kmh SSE 0.3 mph0.5 kmh 29.68 in1005.1 mb 0.00 in0.0 mm 0.00 in0.0 mm 0.00 in0.0 mm
12:33 AM 65.0°F18.3°C 45.9°F7.7°C 50% 0.3 mph SSE0.5 kmh SSE 0.7 mph1.1 kmh 29.67 in1004.7 mb 0.00 in0.0 mm 0.00 in0.0 mm 0.00 in0.0 mm
12:32 AM 65.0°F18.3°C 45.9°F7.7°C 50% 0.3 mph SSE0.5 kmh SSE 0.7 mph1.1 kmh 29.67 in1004.7 mb 0.00 in0.0 mm 0.00 in0.0 mm 0.00 in0.0 mm
12:31 AM 65.1°F18.4°C 46.0°F7.8°C 50% 0.3 mph SSE0.5 kmh SSE 0.7 mph1.1 kmh 29.67 in1004.7 mb 0.00 in0.0 mm 0.00 in0.0 mm 0.00 in0.0 mm
12:30 AM 65.1°F18.4°C 45.5°F7.5°C 49% 0.3 mph SSE0.5 kmh SSE 0.7 mph1.1 kmh 29.67 in1004.7 mb 0.00 in0.0 mm 0.00 in0.0 mm 0.00 in0.0 mm
12:29 AM 65.1°F18.4°C 45.5°F7.5°C 49% 0.3 mph SSE0.5 kmh SSE 0.7 mph1.1 kmh 29.67 in1004.7 mb 0.00 in0.0 mm 0.00 in0.0 mm 0.00 in0.0 mm
12:28 AM 65.1°F18.4°C 45.5°F7.5°C 49% Calm Calm 0.7 mph1.1 kmh 29.67 in1004.7 mb 0.00 in0.0 mm 0.00 in0.0 mm 0.00 in0.0 mm
12:27 AM 65.1°F18.4°C 46.0°F7.8°C 50% 0.3 mph SE0.5 kmh SE 0.7 mph1.1 kmh 29.67 in1004.7 mb 0.00 in0.0 mm 0.00 in0.0 mm 0.00 in0.0 mm
12:26 AM 65.3°F18.5°C 45.6°F7.6°C 49% 0.3 mph SE0.5 kmh SE 2.3 mph3.7 kmh 29.67 in1004.7 mb 0.00 in0.0 mm 0.00 in0.0 mm 0.00 in0.0 mm
12:25 AM 65.3°F18.5°C 45.6°F7.6°C 49% 0.3 mph SE0.5 kmh SE 2.3 mph3.7 kmh 29.67 in1004.7 mb 0.00 in0.0 mm 0.00 in0.0 mm 0.00 in0.0 mm
12:24 AM 65.3°F18.5°C 45.6°F7.6°C 49% 0.3 mph E0.5 kmh E 2.3 mph3.7 kmh 29.67 in1004.7 mb 0.00 in0.0 mm 0.00 in0.0 mm 0.00 in0.0 mm
12:23 AM 65.3°F18.5°C 45.6°F7.6°C 49% 0.3 mph E0.5 kmh E 2.3 mph3.7 kmh 29.67 in1004.7 mb 0.00 in0.0 mm 0.00 in0.0 mm 0.00 in0.0 mm
12:22 AM 65.3°F18.5°C 46.2°F7.9°C 50% 0.5 mph E0.8 kmh E 2.3 mph3.7 kmh 29.67 in1004.7 mb 0.00 in0.0 mm 0.00 in0.0 mm 0.00 in0.0 mm
12:21 AM 65.3°F18.5°C 46.2°F7.9°C 50% 0.5 mph E0.8 kmh E 2.3 mph3.7 kmh 29.67 in1004.7 mb 0.00 in0.0 mm 0.00 in0.0 mm 0.00 in0.0 mm
12:20 AM 65.3°F18.5°C 46.2°F7.9°C 50% 0.4 mph E0.6 kmh E 2.3 mph3.7 kmh 29.67 in1004.7 mb 0.00 in0.0 mm 0.00 in0.0 mm 0.00 in0.0 mm
12:19 AM 65.3°F18.5°C 46.2°F7.9°C 50% 0.4 mph E0.6 kmh E 2.3 mph3.7 kmh 29.67 in1004.7 mb 0.00 in0.0 mm 0.00 in0.0 mm 0.00 in0.0 mm
12:18 AM 65.3°F18.5°C 46.2°F7.9°C 50% 0.6 mph E1.0 kmh E 2.3 mph3.7 kmh 29.67 in1004.7 mb 0.00 in0.0 mm 0.00 in0.0 mm 0.00 in0.0 mm
12:17 AM 65.5°F18.6°C 46.9°F8.3°C 51% 1.1 mph E1.8 kmh E 2.3 mph3.7 kmh 29.67 in1004.7 mb 0.00 in0.0 mm 0.00 in0.0 mm 0.00 in0.0 mm
12:16 AM 65.5°F18.6°C 46.9°F8.3°C 51% 1.8 mph ENE2.9 kmh ENE 2.3 mph3.7 kmh 29.67 in1004.7 mb 0.00 in0.0 mm 0.00 in0.0 mm 0.00 in0.0 mm
12:15 AM 65.5°F18.6°C 46.9°F8.3°C 51% 0.6 mph ESE1.0 kmh ESE 1.6 mph2.6 kmh 29.68 in1005.1 mb 0.00 in0.0 mm 0.00 in0.0 mm 0.00 in0.0 mm
12:14 AM 65.5°F18.6°C 46.9°F8.3°C 51% 0.4 mph ESE0.6 kmh ESE 1.6 mph2.6 kmh 29.67 in1004.7 mb 0.00 in0.0 mm 0.00 in0.0 mm 0.00 in0.0 mm
12:13 AM 65.5°F18.6°C 46.9°F8.3°C 51% 0.3 mph E0.5 kmh E 1.6 mph2.6 kmh 29.67 in1004.7 mb 0.00 in0.0 mm 0.00 in0.0 mm 0.00 in0.0 mm
12:12 AM 65.5°F18.6°C 46.9°F8.3°C 51% 0.5 mph E0.8 kmh E 1.6 mph2.6 kmh 29.67 in1004.7 mb 0.00 in0.0 mm 0.00 in0.0 mm 0.00 in0.0 mm
12:11 AM 65.7°F18.7°C 47.1°F8.4°C 51% 0.9 mph E1.4 kmh E 1.6 mph2.6 kmh 29.67 in1004.7 mb 0.00 in0.0 mm 0.00 in0.0 mm 0.00 in0.0 mm
12:10 AM 65.7°F18.7°C 47.6°F8.7°C 52% 0.7 mph ESE1.1 kmh ESE 1.6 mph2.6 kmh 29.67 in1004.7 mb 0.00 in0.0 mm 0.00 in0.0 mm 0.00 in0.0 mm
12:09 AM 65.7°F18.7°C 47.6°F8.7°C 52% 0.4 mph SE0.6 kmh SE 0.7 mph1.1 kmh 29.67 in1004.7 mb 0.00 in0.0 mm 0.00 in0.0 mm 0.00 in0.0 mm
12:08 AM 65.7°F18.7°C 47.6°F8.7°C 52% Calm Calm 0.7 mph1.1 kmh 29.67 in1004.7 mb 0.00 in0.0 mm 0.00 in0.0 mm 0.00 in0.0 mm
12:07 AM 65.7°F18.7°C 47.6°F8.7°C 52% Calm Calm 0.7 mph1.1 kmh 29.67 in1004.7 mb 0.00 in0.0 mm 0.00 in0.0 mm 0.00 in0.0 mm
12:06 AM 65.9°F18.8°C 47.8°F8.8°C 52% Calm Calm 0.7 mph1.1 kmh 29.67 in1004.7 mb 0.00 in0.0 mm 0.00 in0.0 mm 0.00 in0.0 mm
12:05 AM 65.9°F18.8°C 47.8°F8.8°C 52% 0.3 mph SE0.5 kmh SE 0.7 mph1.1 kmh 29.67 in1004.7 mb 0.00 in0.0 mm 0.00 in0.0 mm 0.00 in0.0 mm
12:04 AM 65.9°F18.8°C 47.8°F8.8°C 52% 0.3 mph SE0.5 kmh SE 0.7 mph1.1 kmh 29.67 in1004.7 mb 0.00 in0.0 mm 0.00 in0.0 mm 0.00 in0.0 mm
12:03 AM 65.9°F18.8°C 47.8°F8.8°C 52% Calm Calm 0.7 mph1.1 kmh 29.67 in1004.7 mb 0.00 in0.0 mm 0.00 in0.0 mm 0.00 in0.0 mm
12:02 AM 65.9°F18.8°C 48.3°F9.1°C 53% Calm Calm 0.7 mph1.1 kmh 29.67 in1004.7 mb 0.00 in0.0 mm 0.00 in0.0 mm 0.00 in0.0 mm
12:01 AM 65.9°F18.8°C 48.3°F9.1°C 53% 0.3 mph SE0.5 kmh SE 0.7 mph1.1 kmh 29.67 in1004.7 mb 0.00 in0.0 mm 0.00 in0.0 mm 0.00 in0.0 mm
12:00 AM 65.9°F18.8°C 48.3°F9.1°C 53% 0.3 mph SE0.5 kmh SE 0.7 mph1.1 kmh 29.67 in1004.7 mb 0.00 in0.0 mm 0.00 in0.0 mm 0.00 in0.0 mm